sensor_id;sensor_type;location;lat;lon;timestamp;pressure;altitude;pressure_sealevel;temperature;humidity
20017;BME280;10169;42.664;23.610;2024-03-02T00:01:09;94763.34;;;7.79;100.00
20017;BME280;10169;42.664;23.610;2024-03-02T00:03:10;94761.66;;;7.62;100.00
20017;BME280;10169;42.664;23.610;2024-03-02T00:05:13;94766.13;;;7.73;100.00
20017;BME280;10169;42.664;23.610;2024-03-02T00:07:14;94781.41;;;7.71;100.00
20017;BME280;10169;42.664;23.610;2024-03-02T00:09:14;94778.09;;;7.64;100.00
20017;BME280;10169;42.664;23.610;2024-03-02T00:11:15;94774.88;;;7.62;100.00
20017;BME280;10169;42.664;23.610;2024-03-02T00:13:16;94772.84;;;7.52;100.00
20017;BME280;10169;42.664;23.610;2024-03-02T00:17:29;94762.28;;;7.41;100.00
20017;BME280;10169;42.664;23.610;2024-03-02T00:19:29;94771.25;;;7.40;100.00
20017;BME280;10169;42.664;23.610;2024-03-02T00:21:30;94776.19;;;7.36;100.00
20017;BME280;10169;42.664;23.610;2024-03-02T00:23:31;94782.84;;;7.39;100.00
20017;BME280;10169;42.664;23.610;2024-03-02T00:25:36;94776.63;;;7.45;100.00
20017;BME280;10169;42.664;23.610;2024-03-02T00:27:37;94773.09;;;7.39;100.00
20017;BME280;10169;42.664;23.610;2024-03-02T00:29:37;94774.69;;;7.28;100.00
20017;BME280;10169;42.664;23.610;2024-03-02T00:31:40;94776.06;;;7.31;100.00
20017;BME280;10169;42.664;23.610;2024-03-02T00:33:44;94780.31;;;7.44;100.00
20017;BME280;10169;42.664;23.610;2024-03-02T00:35:44;94766.41;;;7.37;100.00
20017;BME280;10169;42.664;23.610;2024-03-02T00:37:45;94766.75;;;7.28;100.00
20017;BME280;10169;42.664;23.610;2024-03-02T00:39:48;94763.09;;;7.29;100.00
20017;BME280;10169;42.664;23.610;2024-03-02T00:41:48;94761.47;;;7.28;100.00
20017;BME280;10169;42.664;23.610;2024-03-02T00:44:04;94768.38;;;7.41;100.00
20017;BME280;10169;42.664;23.610;2024-03-02T00:46:06;94767.34;;;7.30;100.00
20017;BME280;10169;42.664;23.610;2024-03-02T00:48:06;94767.81;;;7.27;100.00
20017;BME280;10169;42.664;23.610;2024-03-02T00:50:08;94760.22;;;7.31;100.00
20017;BME280;10169;42.664;23.610;2024-03-02T00:52:09;94761.13;;;7.37;100.00
20017;BME280;10169;42.664;23.610;2024-03-02T00:54:10;94755.75;;;7.31;100.00
20017;BME280;10169;42.664;23.610;2024-03-02T00:56:10;94763.09;;;7.29;100.00
20017;BME280;10169;42.664;23.610;2024-03-02T00:58:11;94757.25;;;7.27;100.00
20017;BME280;10169;42.664;23.610;2024-03-02T01:00:12;94755.59;;;7.38;100.00
20017;BME280;10169;42.664;23.610;2024-03-02T01:02:15;94750.31;;;7.38;100.00
20017;BME280;10169;42.664;23.610;2024-03-02T01:04:15;94745.16;;;7.31;100.00
20017;BME280;10169;42.664;23.610;2024-03-02T01:06:16;94752.53;;;7.29;100.00
20017;BME280;10169;42.664;23.610;2024-03-02T01:08:17;94748.50;;;7.27;100.00
20017;BME280;10169;42.664;23.610;2024-03-02T01:10:17;94754.47;;;7.46;100.00
20017;BME280;10169;42.664;23.610;2024-03-02T01:12:17;94750.31;;;7.50;100.00
20017;BME280;10169;42.664;23.610;2024-03-02T01:14:17;94742.22;;;7.56;100.00
20017;BME280;10169;42.664;23.610;2024-03-02T01:16:18;94742.75;;;7.42;100.00
20017;BME280;10169;42.664;23.610;2024-03-02T01:18:18;94742.75;;;7.42;100.00
20017;BME280;10169;42.664;23.610;2024-03-02T01:20:18;94735.50;;;7.49;100.00
20017;BME280;10169;42.664;23.610;2024-03-02T01:22:19;94744.47;;;7.36;100.00
20017;BME280;10169;42.664;23.610;2024-03-02T01:24:25;94732.50;;;7.33;100.00
20017;BME280;10169;42.664;23.610;2024-03-02T01:26:25;94738.38;;;7.36;100.00
20017;BME280;10169;42.664;23.610;2024-03-02T01:28:25;94738.03;;;7.44;100.00
20017;BME280;10169;42.664;23.610;2024-03-02T01:30:26;94732.88;;;7.37;100.00
20017;BME280;10169;42.664;23.610;2024-03-02T01:32:26;94732.50;;;7.33;100.00
20017;BME280;10169;42.664;23.610;2024-03-02T01:34:27;94733.66;;;7.38;100.00
20017;BME280;10169;42.664;23.610;2024-03-02T01:36:27;94736.78;;;7.35;100.00
20017;BME280;10169;42.664;23.610;2024-03-02T01:38:27;94735.97;;;7.34;100.00
20017;BME280;10169;42.664;23.610;2024-03-02T01:40:28;94741.81;;;7.36;100.00
20017;BME280;10169;42.664;23.610;2024-03-02T01:42:29;94732.75;;;7.44;100.00
20017;BME280;10169;42.664;23.610;2024-03-02T01:44:30;94733.06;;;7.47;100.00
20017;BME280;10169;42.664;23.610;2024-03-02T01:46:31;94728.59;;;7.48;100.00
20017;BME280;10169;42.664;23.610;2024-03-02T01:48:31;94733.16;;;7.52;100.00
20017;BME280;10169;42.664;23.610;2024-03-02T01:50:32;94727.56;;;7.49;100.00
20017;BME280;10169;42.664;23.610;2024-03-02T01:52:32;94738.31;;;7.59;100.00
20017;BME280;10169;42.664;23.610;2024-03-02T01:54:33;94727.19;;;7.57;100.00
20017;BME280;10169;42.664;23.610;2024-03-02T01:56:33;94722.00;;;7.62;100.00
20017;BME280;10169;42.664;23.610;2024-03-02T01:58:33;94727.28;;;7.62;100.00
20017;BME280;10169;42.664;23.610;2024-03-02T02:00:34;94723.28;;;7.59;100.00
20017;BME280;10169;42.664;23.610;2024-03-02T02:02:34;94726.38;;;7.56;100.00
20017;BME280;10169;42.664;23.610;2024-03-02T02:04:34;94732.34;;;7.63;100.00
20017;BME280;10169;42.664;23.610;2024-03-02T02:06:34;94728.88;;;7.63;100.00
20017;BME280;10169;42.664;23.610;2024-03-02T02:08:36;94728.06;;;7.62;100.00
20017;BME280;10169;42.664;23.610;2024-03-02T02:10:36;94733.34;;;7.62;100.00
20017;BME280;10169;42.664;23.610;2024-03-02T02:12:37;94724.97;;;7.65;100.00
20017;BME280;10169;42.664;23.610;2024-03-02T02:14:37;94723.47;;;7.58;100.00
20017;BME280;10169;42.664;23.610;2024-03-02T02:16:39;94716.47;;;7.63;100.00
20017;BME280;10169;42.664;23.610;2024-03-02T02:18:40;94716.00;;;7.66;100.00
20017;BME280;10169;42.664;23.610;2024-03-02T02:20:40;94712.19;;;7.62;100.00
20017;BME280;10169;42.664;23.610;2024-03-02T02:22:40;94716.94;;;7.60;100.00
20017;BME280;10169;42.664;23.610;2024-03-02T02:24:41;94715.56;;;7.58;100.00
20017;BME280;10169;42.664;23.610;2024-03-02T02:26:41;94719.56;;;7.60;100.00
20017;BME280;10169;42.664;23.610;2024-03-02T02:28:42;94719.25;;;7.57;100.00
20017;BME280;10169;42.664;23.610;2024-03-02T02:30:48;94720.13;;;7.62;100.00
20017;BME280;10169;42.664;23.610;2024-03-02T02:32:48;94720.25;;;7.67;100.00
20017;BME280;10169;42.664;23.610;2024-03-02T02:34:52;94710.22;;;7.69;100.00
20017;BME280;10169;42.664;23.610;2024-03-02T02:36:52;94712.69;;;7.59;100.00
20017;BME280;10169;42.664;23.610;2024-03-02T02:38:53;94725.22;;;7.64;100.00
20017;BME280;10169;42.664;23.610;2024-03-02T02:40:53;94716.00;;;7.66;100.00
20017;BME280;10169;42.664;23.610;2024-03-02T02:42:53;94723.59;;;7.63;100.00
20017;BME280;10169;42.664;23.610;2024-03-02T02:44:54;94721.31;;;7.66;100.00
20017;BME280;10169;42.664;23.610;2024-03-02T02:46:54;94713.56;;;7.65;100.00
20017;BME280;10169;42.664;23.610;2024-03-02T02:48:54;94714.16;;;7.67;100.00
20017;BME280;10169;42.664;23.610;2024-03-02T02:50:54;94715.09;;;7.61;100.00
20017;BME280;10169;42.664;23.610;2024-03-02T02:52:55;94718.53;;;7.61;100.00
20017;BME280;10169;42.664;23.610;2024-03-02T02:54:55;94718.78;;;7.60;100.00
20017;BME280;10169;42.664;23.610;2024-03-02T02:56:55;94722.78;;;7.62;100.00
20017;BME280;10169;42.664;23.610;2024-03-02T02:58:56;94716.47;;;7.63;100.00
20017;BME280;10169;42.664;23.610;2024-03-02T03:00:56;94724.41;;;7.63;100.00
20017;BME280;10169;42.664;23.610;2024-03-02T03:02:57;94714.84;;;7.62;100.00
20017;BME280;10169;42.664;23.610;2024-03-02T03:04:57;94712.50;;;7.77;100.00
20017;BME280;10169;42.664;23.610;2024-03-02T03:06:57;94715.22;;;7.82;100.00
20017;BME280;10169;42.664;23.610;2024-03-02T03:08:58;94716.53;;;7.80;100.00
20017;BME280;10169;42.664;23.610;2024-03-02T03:10:58;94719.06;;;7.75;100.00
20017;BME280;10169;42.664;23.610;2024-03-02T03:12:58;94713.69;;;7.70;100.00
20017;BME280;10169;42.664;23.610;2024-03-02T03:14:58;94716.78;;;7.67;100.00
20017;BME280;10169;42.664;23.610;2024-03-02T03:16:59;94722.56;;;7.64;100.00
20017;BME280;10169;42.664;23.610;2024-03-02T03:19:00;94717.28;;;7.64;100.00
20017;BME280;10169;42.664;23.610;2024-03-02T03:21:00;94719.34;;;7.62;100.00
20017;BME280;10169;42.664;23.610;2024-03-02T03:23:00;94716.31;;;7.70;100.00
20017;BME280;10169;42.664;23.610;2024-03-02T03:25:00;94722.06;;;7.67;100.00
20017;BME280;10169;42.664;23.610;2024-03-02T03:27:01;94715.16;;;7.77;100.00
20017;BME280;10169;42.664;23.610;2024-03-02T03:29:01;94715.38;;;7.76;100.00
20017;BME280;10169;42.664;23.610;2024-03-02T03:31:02;94721.47;;;7.76;100.00
20017;BME280;10169;42.664;23.610;2024-03-02T03:33:03;94717.59;;;7.67;100.00
20017;BME280;10169;42.664;23.610;2024-03-02T03:35:04;94721.16;;;7.73;100.00
20017;BME280;10169;42.664;23.610;2024-03-02T03:37:05;94720.34;;;7.72;100.00
20017;BME280;10169;42.664;23.610;2024-03-02T03:39:05;94724.38;;;7.75;100.00
20017;BME280;10169;42.664;23.610;2024-03-02T03:41:06;94728.84;;;7.74;100.00
20017;BME280;10169;42.664;23.610;2024-03-02T03:43:06;94728.03;;;7.74;100.00
20017;BME280;10169;42.664;23.610;2024-03-02T03:45:07;94720.44;;;7.77;100.00
20017;BME280;10169;42.664;23.610;2024-03-02T03:47:07;94724.00;;;7.71;100.00
20017;BME280;10169;42.664;23.610;2024-03-02T03:49:07;94720.09;;;7.74;100.00
20017;BME280;10169;42.664;23.610;2024-03-02T03:51:08;94726.97;;;7.86;100.00
20017;BME280;10169;42.664;23.610;2024-03-02T03:53:08;94718.06;;;7.92;100.00
20017;BME280;10169;42.664;23.610;2024-03-02T03:55:08;94722.19;;;7.72;100.00
20017;BME280;10169;42.664;23.610;2024-03-02T03:57:08;94716.56;;;7.68;100.00
20017;BME280;10169;42.664;23.610;2024-03-02T03:59:09;94715.94;;;7.78;100.00
20017;BME280;10169;42.664;23.610;2024-03-02T04:01:09;94718.69;;;7.83;100.00
20017;BME280;10169;42.664;23.610;2024-03-02T04:03:09;94724.69;;;7.78;100.00
20017;BME280;10169;42.664;23.610;2024-03-02T04:05:10;94713.06;;;7.79;100.00
20017;BME280;10169;42.664;23.610;2024-03-02T04:07:10;94717.38;;;7.69;100.00
20017;BME280;10169;42.664;23.610;2024-03-02T04:09:10;94713.13;;;7.68;100.00
20017;BME280;10169;42.664;23.610;2024-03-02T04:11:11;94713.69;;;7.70;100.00
20017;BME280;10169;42.664;23.610;2024-03-02T04:13:11;94711.78;;;7.54;100.00
20017;BME280;10169;42.664;23.610;2024-03-02T04:15:12;94719.63;;;7.49;100.00
20017;BME280;10169;42.664;23.610;2024-03-02T04:17:12;94715.78;;;7.56;100.00
20017;BME280;10169;42.664;23.610;2024-03-02T04:19:13;94724.09;;;7.48;100.00
20017;BME280;10169;42.664;23.610;2024-03-02T04:21:13;94720.78;;;7.41;100.00
20017;BME280;10169;42.664;23.610;2024-03-02T04:23:13;94727.44;;;7.44;100.00
20017;BME280;10169;42.664;23.610;2024-03-02T04:25:14;94725.38;;;7.46;100.00
20017;BME280;10169;42.664;23.610;2024-03-02T04:27:14;94722.16;;;7.44;100.00
20017;BME280;10169;42.664;23.610;2024-03-02T04:29:14;94731.47;;;7.46;100.00
20017;BME280;10169;42.664;23.610;2024-03-02T04:31:15;94731.00;;;7.49;100.00
20017;BME280;10169;42.664;23.610;2024-03-02T04:33:15;94731.69;;;7.45;100.00
20017;BME280;10169;42.664;23.610;2024-03-02T04:35:16;94737.22;;;7.43;100.00
20017;BME280;10169;42.664;23.610;2024-03-02T04:37:16;94728.59;;;7.48;100.00
20017;BME280;10169;42.664;23.610;2024-03-02T04:39:17;94731.94;;;7.43;100.00
20017;BME280;10169;42.664;23.610;2024-03-02T04:41:17;94736.09;;;7.39;100.00
20017;BME280;10169;42.664;23.610;2024-03-02T04:43:17;94735.28;;;7.39;100.00
20017;BME280;10169;42.664;23.610;2024-03-02T04:45:19;94739.88;;;7.31;100.00
20017;BME280;10169;42.664;23.610;2024-03-02T04:47:19;94743.47;;;7.25;100.00
20017;BME280;10169;42.664;23.610;2024-03-02T04:49:19;94738.75;;;7.27;100.00
20017;BME280;10169;42.664;23.610;2024-03-02T04:51:20;94744.91;;;7.45;100.00
20017;BME280;10169;42.664;23.610;2024-03-02T04:53:20;94747.34;;;7.35;100.00
20017;BME280;10169;42.664;23.610;2024-03-02T04:55:20;94743.56;;;7.30;100.00
20017;BME280;10169;42.664;23.610;2024-03-02T04:57:43;94751.00;;;7.33;100.00
20017;BME280;10169;42.664;23.610;2024-03-02T04:59:44;94752.84;;;7.33;100.00
20017;BME280;10169;42.664;23.610;2024-03-02T05:01:44;94755.06;;;7.24;100.00
20017;BME280;10169;42.664;23.610;2024-03-02T05:03:44;94752.41;;;7.36;100.00
20017;BME280;10169;42.664;23.610;2024-03-02T05:05:45;94756.38;;;7.62;100.00
20017;BME280;10169;42.664;23.610;2024-03-02T05:07:45;94766.63;;;7.47;100.00
20017;BME280;10169;42.664;23.610;2024-03-02T05:09:45;94757.69;;;7.36;100.00
20017;BME280;10169;42.664;23.610;2024-03-02T05:11:48;94765.84;;;7.35;100.00
20017;BME280;10169;42.664;23.610;2024-03-02T05:14:07;94759.06;;;7.39;100.00
20017;BME280;10169;42.664;23.610;2024-03-02T05:16:07;94765.97;;;7.40;100.00
20017;BME280;10169;42.664;23.610;2024-03-02T05:18:07;94760.56;;;7.35;100.00
20017;BME280;10169;42.664;23.610;2024-03-02T05:20:08;94768.50;;;7.35;100.00
20017;BME280;10169;42.664;23.610;2024-03-02T05:22:09;94766.41;;;7.37;100.00
20017;BME280;10169;42.664;23.610;2024-03-02T05:24:09;94769.41;;;7.28;100.00
20017;BME280;10169;42.664;23.610;2024-03-02T05:26:09;94767.22;;;7.37;100.00
20017;BME280;10169;42.664;23.610;2024-03-02T05:28:12;94772.72;;;7.36;100.00
20017;BME280;10169;42.664;23.610;2024-03-02T05:30:13;94773.22;;;7.32;100.00
20017;BME280;10169;42.664;23.610;2024-03-02T05:32:13;94772.53;;;7.37;100.00
20017;BME280;10169;42.664;23.610;2024-03-02T05:34:13;94781.72;;;7.35;100.00
20017;BME280;10169;42.664;23.610;2024-03-02T05:36:14;94774.34;;;7.37;100.00
20017;BME280;10169;42.664;23.610;2024-03-02T05:38:14;94778.81;;;7.48;100.00
20017;BME280;10169;42.664;23.610;2024-03-02T05:40:14;94779.84;;;7.47;100.00
20017;BME280;10169;42.664;23.610;2024-03-02T05:42:15;94777.56;;;7.39;100.00
20017;BME280;10169;42.664;23.610;2024-03-02T05:44:16;94784.22;;;7.41;100.00
20017;BME280;10169;42.664;23.610;2024-03-02T05:46:18;94792.50;;;7.33;100.00
20017;BME280;10169;42.664;23.610;2024-03-02T05:48:18;94791.16;;;7.30;100.00
20017;BME280;10169;42.664;23.610;2024-03-02T05:50:18;94789.41;;;7.36;100.00
20017;BME280;10169;42.664;23.610;2024-03-02T05:52:20;94800.34;;;7.40;100.00
20017;BME280;10169;42.664;23.610;2024-03-02T05:54:20;94792.97;;;7.42;100.00
20017;BME280;10169;42.664;23.610;2024-03-02T05:56:21;94796.31;;;7.37;100.00
20017;BME280;10169;42.664;23.610;2024-03-02T05:58:22;94803.44;;;7.37;100.00
20017;BME280;10169;42.664;23.610;2024-03-02T06:00:33;94800.22;;;7.35;100.00
20017;BME280;10169;42.664;23.610;2024-03-02T06:02:34;94808.59;;;7.31;100.00
20017;BME280;10169;42.664;23.610;2024-03-02T06:04:35;94799.66;;;7.32;100.00
20017;BME280;10169;42.664;23.610;2024-03-02T06:06:35;94811.00;;;7.33;100.00
20017;BME280;10169;42.664;23.610;2024-03-02T06:08:35;94809.75;;;7.36;100.00
20017;BME280;10169;42.664;23.610;2024-03-02T06:10:36;94812.16;;;7.37;100.00
20017;BME280;10169;42.664;23.610;2024-03-02T06:12:36;94809.53;;;7.37;100.00
20017;BME280;10169;42.664;23.610;2024-03-02T06:14:37;94810.78;;;7.35;100.00
20017;BME280;10169;42.664;23.610;2024-03-02T06:16:37;94815.50;;;7.32;100.00
20017;BME280;10169;42.664;23.610;2024-03-02T06:18:37;94813.56;;;7.40;100.00
20017;BME280;10169;42.664;23.610;2024-03-02T06:20:38;94820.78;;;7.44;100.00
20017;BME280;10169;42.664;23.610;2024-03-02T06:22:38;94820.53;;;7.46;100.00
20017;BME280;10169;42.664;23.610;2024-03-02T06:24:38;94820.09;;;7.49;100.00
20017;BME280;10169;42.664;23.610;2024-03-02T06:26:38;94825.38;;;7.49;100.00
20017;BME280;10169;42.664;23.610;2024-03-02T06:28:39;94827.09;;;7.55;100.00
20017;BME280;10169;42.664;23.610;2024-03-02T06:30:39;94821.31;;;7.58;100.00
20017;BME280;10169;42.664;23.610;2024-03-02T06:32:40;94820.19;;;7.54;100.00
20017;BME280;10169;42.664;23.610;2024-03-02T06:34:40;94833.53;;;7.47;100.00
20017;BME280;10169;42.664;23.610;2024-03-02T06:36:40;94831.25;;;7.51;100.00
20017;BME280;10169;42.664;23.610;2024-03-02T06:38:42;94829.94;;;7.53;100.00
20017;BME280;10169;42.664;23.610;2024-03-02T06:40:42;94834.44;;;7.53;100.00
20017;BME280;10169;42.664;23.610;2024-03-02T06:42:43;94837.78;;;7.60;100.00
20017;BME280;10169;42.664;23.610;2024-03-02T06:44:43;94835.72;;;7.62;100.00
20017;BME280;10169;42.664;23.610;2024-03-02T06:46:43;94842.69;;;7.68;100.00
20017;BME280;10169;42.664;23.610;2024-03-02T06:48:44;94839.25;;;7.67;100.00
20017;BME280;10169;42.664;23.610;2024-03-02T06:50:44;94838.09;;;7.75;100.00
20017;BME280;10169;42.664;23.610;2024-03-02T06:52:44;94841.56;;;7.64;100.00
20017;BME280;10169;42.664;23.610;2024-03-02T06:54:44;94845.34;;;7.68;100.00
20017;BME280;10169;42.664;23.610;2024-03-02T06:56:45;94836.16;;;7.70;100.00
20017;BME280;10169;42.664;23.610;2024-03-02T06:58:45;94842.56;;;7.74;100.00
20017;BME280;10169;42.664;23.610;2024-03-02T07:00:46;94839.81;;;7.69;100.00
20017;BME280;10169;42.664;23.610;2024-03-02T07:02:47;94841.19;;;7.72;100.00
20017;BME280;10169;42.664;23.610;2024-03-02T07:04:48;94839.22;;;7.79;100.00
20017;BME280;10169;42.664;23.610;2024-03-02T07:06:48;94839.22;;;7.79;100.00
20017;BME280;10169;42.664;23.610;2024-03-02T07:08:49;94843.25;;;7.81;100.00
20017;BME280;10169;42.664;23.610;2024-03-02T07:10:49;94845.31;;;7.91;100.00
20017;BME280;10169;42.664;23.610;2024-03-02T07:12:49;94839.53;;;7.94;100.00
20017;BME280;10169;42.664;23.610;2024-03-02T07:14:49;94840.78;;;8.03;100.00
20017;BME280;10169;42.664;23.610;2024-03-02T07:17:05;94833.97;;;8.07;100.00
20017;BME280;10169;42.664;23.610;2024-03-02T07:19:06;94834.91;;;8.01;100.00
20017;BME280;10169;42.664;23.610;2024-03-02T07:21:09;94833.91;;;7.90;100.00
20017;BME280;10169;42.664;23.610;2024-03-02T07:23:09;94838.50;;;7.95;100.00
20017;BME280;10169;42.664;23.610;2024-03-02T07:25:09;94828.09;;;8.05;100.00
20017;BME280;10169;42.664;23.610;2024-03-02T07:27:10;94834.06;;;8.12;100.00
20017;BME280;10169;42.664;23.610;2024-03-02T07:29:10;94835.44;;;8.15;100.00
20017;BME280;10169;42.664;23.610;2024-03-02T07:31:10;94830.38;;;8.25;100.00
20017;BME280;10169;42.664;23.610;2024-03-02T07:33:11;94841.19;;;8.12;100.00
20017;BME280;10169;42.664;23.610;2024-03-02T07:35:12;94840.78;;;8.03;100.00
20017;BME280;10169;42.664;23.610;2024-03-02T07:37:12;94840.22;;;8.01;100.00
20017;BME280;10169;42.664;23.610;2024-03-02T07:39:13;94844.69;;;8.00;100.00
20017;BME280;10169;42.664;23.610;2024-03-02T07:41:13;94844.81;;;8.05;100.00
20017;BME280;10169;42.664;23.610;2024-03-02T07:43:13;94848.00;;;8.07;100.00
20017;BME280;10169;42.664;23.610;2024-03-02T07:45:14;94846.06;;;8.03;100.00
20017;BME280;10169;42.664;23.610;2024-03-02T07:47:14;94846.88;;;8.03;100.00
20017;BME280;10169;42.664;23.610;2024-03-02T07:49:14;94846.41;;;8.07;100.00
20017;BME280;10169;42.664;23.610;2024-03-02T07:51:14;94853.56;;;8.06;100.00
20017;BME280;10169;42.664;23.610;2024-03-02T07:53:15;94848.38;;;8.11;100.00
20017;BME280;10169;42.664;23.610;2024-03-02T07:55:15;94851.00;;;8.11;100.00
20017;BME280;10169;42.664;23.610;2024-03-02T07:57:16;94852.13;;;8.15;100.00
20017;BME280;10169;42.664;23.610;2024-03-02T07:59:17;94853.16;;;8.14;100.00
20017;BME280;10169;42.664;23.610;2024-03-02T08:01:17;94855.50;;;8.11;100.00
20017;BME280;10169;42.664;23.610;2024-03-02T08:03:18;94855.03;;;8.14;100.00
20017;BME280;10169;42.664;23.610;2024-03-02T08:05:18;94846.97;;;8.09;100.00
20017;BME280;10169;42.664;23.610;2024-03-02T08:07:21;94856.97;;;8.18;100.00
20017;BME280;10169;42.664;23.610;2024-03-02T08:09:21;94863.41;;;8.22;100.00
20017;BME280;10169;42.664;23.610;2024-03-02T08:11:22;94861.22;;;8.31;100.00
20017;BME280;10169;42.664;23.610;2024-03-02T08:13:22;94861.66;;;8.28;100.00
20017;BME280;10169;42.664;23.610;2024-03-02T08:15:23;94855.56;;;8.27;100.00
20017;BME280;10169;42.664;23.610;2024-03-02T08:17:24;94859.69;;;8.23;100.00
20017;BME280;10169;42.664;23.610;2024-03-02T08:19:24;94858.00;;;8.29;100.00
20017;BME280;10169;42.664;23.610;2024-03-02T08:21:24;94856.03;;;8.24;100.00
20017;BME280;10169;42.664;23.610;2024-03-02T08:23:25;94860.41;;;8.30;100.00
20017;BME280;10169;42.664;23.610;2024-03-02T08:25:25;94855.81;;;8.26;100.00
20017;BME280;10169;42.664;23.610;2024-03-02T08:27:25;94859.38;;;8.31;100.00
20017;BME280;10169;42.664;23.610;2024-03-02T08:29:26;94855.63;;;8.44;100.00
20017;BME280;10169;42.664;23.610;2024-03-02T08:31:26;94852.03;;;8.50;100.00
20017;BME280;10169;42.664;23.610;2024-03-02T08:33:27;94852.59;;;8.52;100.00
20017;BME280;10169;42.664;23.610;2024-03-02T08:35:27;94851.47;;;8.48;100.00
20017;BME280;10169;42.664;23.610;2024-03-02T08:37:28;94858.38;;;8.49;100.00
20017;BME280;10169;42.664;23.610;2024-03-02T08:39:28;94857.66;;;8.53;100.00
20017;BME280;10169;42.664;23.610;2024-03-02T08:41:28;94849.03;;;8.74;100.00
20017;BME280;10169;42.664;23.610;2024-03-02T08:43:29;94850.41;;;8.77;100.00
20017;BME280;10169;42.664;23.610;2024-03-02T08:45:29;94842.84;;;8.86;100.00
20017;BME280;10169;42.664;23.610;2024-03-02T08:47:30;94850.25;;;8.84;100.00
20017;BME280;10169;42.664;23.610;2024-03-02T08:49:30;94847.69;;;8.89;100.00
20017;BME280;10169;42.664;23.610;2024-03-02T08:51:30;94851.94;;;8.90;100.00
20017;BME280;10169;42.664;23.610;2024-03-02T08:53:31;94847.22;;;8.92;100.00
20017;BME280;10169;42.664;23.610;2024-03-02T08:55:32;94855.22;;;8.80;100.00
20017;BME280;10169;42.664;23.610;2024-03-02T08:57:32;94855.94;;;8.75;100.00
20017;BME280;10169;42.664;23.610;2024-03-02T08:59:33;94859.25;;;8.83;100.00
20017;BME280;10169;42.664;23.610;2024-03-02T09:01:33;94848.75;;;8.88;100.00
20017;BME280;10169;42.664;23.610;2024-03-02T09:03:34;94851.84;;;8.85;100.00
20017;BME280;10169;42.664;23.610;2024-03-02T09:05:34;94857.97;;;8.85;100.00
20017;BME280;10169;42.664;23.610;2024-03-02T09:07:35;94856.31;;;8.67;100.00
20017;BME280;10169;42.664;23.610;2024-03-02T09:09:35;94855.94;;;8.75;100.00
20017;BME280;10169;42.664;23.610;2024-03-02T09:11:35;94860.19;;;8.76;100.00
20017;BME280;10169;42.664;23.610;2024-03-02T09:13:36;94852.63;;;8.68;100.00
20017;BME280;10169;42.664;23.610;2024-03-02T09:15:37;94850.75;;;8.81;100.00
20017;BME280;10169;42.664;23.610;2024-03-02T09:17:39;94863.13;;;8.92;100.00
20017;BME280;10169;42.664;23.610;2024-03-02T09:19:40;94860.63;;;8.85;100.00
20017;BME280;10169;42.664;23.610;2024-03-02T09:21:41;94864.59;;;8.71;100.00
20017;BME280;10169;42.664;23.610;2024-03-02T09:23:42;94866.44;;;8.70;100.00
20017;BME280;10169;42.664;23.610;2024-03-02T09:25:44;94866.13;;;8.84;100.00
20017;BME280;10169;42.664;23.610;2024-03-02T09:27:44;94866.63;;;8.81;100.00
20017;BME280;10169;42.664;23.610;2024-03-02T09:29:44;94864.44;;;8.77;100.00
20017;BME280;10169;42.664;23.610;2024-03-02T09:31:45;94861.25;;;8.92;100.00
20017;BME280;10169;42.664;23.610;2024-03-02T09:33:45;94858.47;;;8.99;100.00
20017;BME280;10169;42.664;23.610;2024-03-02T09:35:45;94855.97;;;9.09;100.00
20017;BME280;10169;42.664;23.610;2024-03-02T09:37:46;94851.06;;;9.01;100.00
20017;BME280;10169;42.664;23.610;2024-03-02T09:39:46;94860.06;;;9.16;100.00
20017;BME280;10169;42.664;23.610;2024-03-02T09:41:47;94857.91;;;9.30;100.00
20017;BME280;10169;42.664;23.610;2024-03-02T09:43:47;94855.56;;;9.17;100.00
20017;BME280;10169;42.664;23.610;2024-03-02T09:45:48;94849.94;;;8.97;100.00
20017;BME280;10169;42.664;23.610;2024-03-02T09:47:49;94851.13;;;8.89;100.00
20017;BME280;10169;42.664;23.610;2024-03-02T09:49:49;94851.38;;;8.88;100.00
20017;BME280;10169;42.664;23.610;2024-03-02T09:51:50;94858.03;;;8.90;100.00
20017;BME280;10169;42.664;23.610;2024-03-02T09:53:50;94858.53;;;8.87;100.00
20017;BME280;10169;42.664;23.610;2024-03-02T09:55:50;94860.06;;;9.00;100.00
20017;BME280;10169;42.664;23.610;2024-03-02T09:57:51;94859.59;;;9.03;100.00
20017;BME280;10169;42.664;23.610;2024-03-02T09:59:51;94860.69;;;8.90;100.00
20017;BME280;10169;42.664;23.610;2024-03-02T10:02:01;94863.44;;;8.95;100.00
20017;BME280;10169;42.664;23.610;2024-03-02T10:04:02;94860.22;;;8.93;100.00
20017;BME280;10169;42.664;23.610;2024-03-02T10:08:20;94858.31;;;9.05;100.00
20017;BME280;10169;42.664;23.610;2024-03-02T10:10:21;94856.22;;;9.07;100.00
20017;BME280;10169;42.664;23.610;2024-03-02T10:12:21;94869.22;;;9.09;100.00
20017;BME280;10169;42.664;23.610;2024-03-02T10:14:22;94857.91;;;9.13;100.00
20017;BME280;10169;42.664;23.610;2024-03-02T10:16:22;94863.50;;;9.17;100.00
20017;BME280;10169;42.664;23.610;2024-03-02T10:18:26;94856.53;;;9.11;100.00
20017;BME280;10169;42.664;23.610;2024-03-02T10:20:26;94868.03;;;9.16;100.00
20017;BME280;10169;42.664;23.610;2024-03-02T10:22:30;94858.31;;;9.05;100.00
20017;BME280;10169;42.664;23.610;2024-03-02T10:24:37;94854.84;;;9.05;100.00
20017;BME280;10169;42.664;23.610;2024-03-02T10:26:38;94857.97;;;9.18;100.00
20017;BME280;10169;42.664;23.610;2024-03-02T10:28:45;94859.00;;;9.17;100.00
20017;BME280;10169;42.664;23.610;2024-03-02T10:30:47;94860.38;;;9.20;100.00
20017;BME280;10169;42.664;23.610;2024-03-02T10:32:48;94860.00;;;9.28;100.00
20017;BME280;10169;42.664;23.610;2024-03-02T10:34:49;94857.00;;;9.24;100.00
20017;BME280;10169;42.664;23.610;2024-03-02T10:36:50;94864.25;;;9.45;100.00